Heerenveen, Netherlands
Current Conditions -  °F | °C
As of 9:25 AM on Tuesday 21 Oct 2014 (Local Time) from EHLW Reporting Station
Rain Showers Rain Showers  
Wind Chill: 55°   Ceiling: 800
Heat Index: 55°   Visibility: 4mi
Dew Point: 54°   Wind: 16mph
Humidity: 94%   Direction: 200°SSW
Pressure: 29.56"   Gusts: NA
Location:  52.96°N, 5.92°E
Report Text: EHLW 210725Z AUTO 20014KT 7000 SHRA FEW007 BKN008 BKN010 13/12 Q1001 REDZ GRN 20015G25KT 9999 FEW008 SCT010 BKN012 TEMPO 4000 DZRA SCT008 BKN010
Loading
Personal Weather Stations






























Interactive Weather Map
Tropical Storm Tracking
New forecast layout! Learn more

10-Day Weather Forecast

Advertisements
Track Severe Weather on mobile